sensor_id;sensor_type;location;lat;lon;timestamp;temperature;humidity
39519;DHT22;25200;53.394;10.414;2023-03-11T00:00:16;2.50;91.20
39519;DHT22;25200;53.394;10.414;2023-03-11T00:02:45;2.50;91.20
39519;DHT22;25200;53.394;10.414;2023-03-11T00:05:37;2.50;91.20
39519;DHT22;25200;53.394;10.414;2023-03-11T00:08:05;2.50;91.20
39519;DHT22;25200;53.394;10.414;2023-03-11T00:10:34;2.50;91.20
39519;DHT22;25200;53.394;10.414;2023-03-11T00:13:01;2.50;91.30
39519;DHT22;25200;53.394;10.414;2023-03-11T00:15:28;2.50;91.20
39519;DHT22;25200;53.394;10.414;2023-03-11T00:17:54;2.50;91.20
39519;DHT22;25200;53.394;10.414;2023-03-11T00:20:26;2.50;91.20
39519;DHT22;25200;53.394;10.414;2023-03-11T00:22:52;2.50;91.30
39519;DHT22;25200;53.394;10.414;2023-03-11T00:25:20;2.50;91.30
39519;DHT22;25200;53.394;10.414;2023-03-11T00:27:46;2.50;91.40
39519;DHT22;25200;53.394;10.414;2023-03-11T00:30:13;2.50;91.30
39519;DHT22;25200;53.394;10.414;2023-03-11T00:32:39;2.50;91.30
39519;DHT22;25200;53.394;10.414;2023-03-11T00:35:05;2.50;91.30
39519;DHT22;25200;53.394;10.414;2023-03-11T00:37:31;2.50;91.30
39519;DHT22;25200;53.394;10.414;2023-03-11T00:39:57;2.50;91.30
39519;DHT22;25200;53.394;10.414;2023-03-11T00:42:23;2.50;91.30
39519;DHT22;25200;53.394;10.414;2023-03-11T00:44:49;2.50;91.30
39519;DHT22;25200;53.394;10.414;2023-03-11T00:47:15;2.40;91.20
39519;DHT22;25200;53.394;10.414;2023-03-11T00:49:40;2.50;91.20
39519;DHT22;25200;53.394;10.414;2023-03-11T00:52:06;2.40;91.20
39519;DHT22;25200;53.394;10.414;2023-03-11T00:54:32;2.50;91.30
39519;DHT22;25200;53.394;10.414;2023-03-11T00:56:57;2.50;91.30
39519;DHT22;25200;53.394;10.414;2023-03-11T00:59:23;2.50;91.20
39519;DHT22;25200;53.394;10.414;2023-03-11T01:01:49;2.50;91.30
39519;DHT22;25200;53.394;10.414;2023-03-11T01:04:14;2.50;91.30
39519;DHT22;25200;53.394;10.414;2023-03-11T01:06:40;2.50;91.20
39519;DHT22;25200;53.394;10.414;2023-03-11T01:09:05;2.40;91.20
39519;DHT22;25200;53.394;10.414;2023-03-11T01:11:31;2.50;91.30
39519;DHT22;25200;53.394;10.414;2023-03-11T01:13:57;2.40;91.20
39519;DHT22;25200;53.394;10.414;2023-03-11T01:16:23;2.40;91.30
39519;DHT22;25200;53.394;10.414;2023-03-11T01:18:49;2.40;91.20
39519;DHT22;25200;53.394;10.414;2023-03-11T01:21:14;2.40;91.40
39519;DHT22;25200;53.394;10.414;2023-03-11T01:23:40;2.40;91.30
39519;DHT22;25200;53.394;10.414;2023-03-11T01:26:07;2.40;91.30
39519;DHT22;25200;53.394;10.414;2023-03-11T01:28:33;2.40;91.30
39519;DHT22;25200;53.394;10.414;2023-03-11T01:30:59;2.40;91.30
39519;DHT22;25200;53.394;10.414;2023-03-11T01:33:24;2.40;91.40
39519;DHT22;25200;53.394;10.414;2023-03-11T01:35:50;2.40;91.30
39519;DHT22;25200;53.394;10.414;2023-03-11T01:38:16;2.40;91.30
39519;DHT22;25200;53.394;10.414;2023-03-11T01:40:43;2.40;91.40
39519;DHT22;25200;53.394;10.414;2023-03-11T01:43:46;2.40;91.30
39519;DHT22;25200;53.394;10.414;2023-03-11T01:48:54;2.40;91.30
39519;DHT22;25200;53.394;10.414;2023-03-11T01:51:29;2.40;91.30
39519;DHT22;25200;53.394;10.414;2023-03-11T01:53:56;2.40;91.30
39519;DHT22;25200;53.394;10.414;2023-03-11T01:56:23;2.40;91.30
39519;DHT22;25200;53.394;10.414;2023-03-11T01:58:52;2.40;91.40
39519;DHT22;25200;53.394;10.414;2023-03-11T02:01:19;2.40;91.30
39519;DHT22;25200;53.394;10.414;2023-03-11T02:03:46;2.40;91.30
39519;DHT22;25200;53.394;10.414;2023-03-11T02:06:21;2.40;91.40
39519;DHT22;25200;53.394;10.414;2023-03-11T02:08:48;2.40;91.30
39519;DHT22;25200;53.394;10.414;2023-03-11T02:11:20;2.40;91.30
39519;DHT22;25200;53.394;10.414;2023-03-11T02:13:48;2.40;91.30
39519;DHT22;25200;53.394;10.414;2023-03-11T02:16:14;2.40;91.30
39519;DHT22;25200;53.394;10.414;2023-03-11T02:18:41;2.40;91.30
39519;DHT22;25200;53.394;10.414;2023-03-11T02:24:18;2.40;91.30
39519;DHT22;25200;53.394;10.414;2023-03-11T02:27:02;2.40;91.30
39519;DHT22;25200;53.394;10.414;2023-03-11T02:29:31;2.40;91.30
39519;DHT22;25200;53.394;10.414;2023-03-11T02:31:59;2.40;91.30
39519;DHT22;25200;53.394;10.414;2023-03-11T02:34:31;2.40;91.30
39519;DHT22;25200;53.394;10.414;2023-03-11T02:36:57;2.40;91.40
39519;DHT22;25200;53.394;10.414;2023-03-11T02:39:44;2.40;91.30
39519;DHT22;25200;53.394;10.414;2023-03-11T02:42:33;2.30;91.30
39519;DHT22;25200;53.394;10.414;2023-03-11T02:45:03;2.40;91.40
39519;DHT22;25200;53.394;10.414;2023-03-11T02:47:30;2.40;91.30
39519;DHT22;25200;53.394;10.414;2023-03-11T02:49:56;2.40;91.30
39519;DHT22;25200;53.394;10.414;2023-03-11T02:52:25;2.40;91.30
39519;DHT22;25200;53.394;10.414;2023-03-11T02:54:52;2.40;91.30
39519;DHT22;25200;53.394;10.414;2023-03-11T02:57:17;2.40;91.30
39519;DHT22;25200;53.394;10.414;2023-03-11T02:59:43;2.40;91.30
39519;DHT22;25200;53.394;10.414;2023-03-11T03:02:09;2.40;91.30
39519;DHT22;25200;53.394;10.414;2023-03-11T03:04:35;2.40;91.30
39519;DHT22;25200;53.394;10.414;2023-03-11T03:07:00;2.40;91.30
39519;DHT22;25200;53.394;10.414;2023-03-11T03:09:26;2.40;91.30
39519;DHT22;25200;53.394;10.414;2023-03-11T03:11:51;2.40;91.50
39519;DHT22;25200;53.394;10.414;2023-03-11T03:14:17;2.40;91.30
39519;DHT22;25200;53.394;10.414;2023-03-11T03:16:43;2.40;91.30
39519;DHT22;25200;53.394;10.414;2023-03-11T03:19:08;2.40;91.30
39519;DHT22;25200;53.394;10.414;2023-03-11T03:21:34;2.40;91.30
39519;DHT22;25200;53.394;10.414;2023-03-11T03:24:00;2.40;91.30
39519;DHT22;25200;53.394;10.414;2023-03-11T03:26:25;2.40;91.30
39519;DHT22;25200;53.394;10.414;2023-03-11T03:28:51;2.40;91.30
39519;DHT22;25200;53.394;10.414;2023-03-11T03:31:17;2.40;91.30
39519;DHT22;25200;53.394;10.414;2023-03-11T03:33:42;2.40;91.30
39519;DHT22;25200;53.394;10.414;2023-03-11T03:36:11;2.40;91.30
39519;DHT22;25200;53.394;10.414;2023-03-11T03:38:37;2.30;91.30
39519;DHT22;25200;53.394;10.414;2023-03-11T03:41:03;2.30;91.40
39519;DHT22;25200;53.394;10.414;2023-03-11T03:43:29;2.30;91.30
39519;DHT22;25200;53.394;10.414;2023-03-11T03:45:56;2.30;91.30
39519;DHT22;25200;53.394;10.414;2023-03-11T03:48:22;2.30;91.30
39519;DHT22;25200;53.394;10.414;2023-03-11T03:50:48;2.30;91.20
39519;DHT22;25200;53.394;10.414;2023-03-11T03:53:13;2.30;91.30
39519;DHT22;25200;53.394;10.414;2023-03-11T03:55:39;2.40;91.30
39519;DHT22;25200;53.394;10.414;2023-03-11T03:58:05;2.40;91.30
39519;DHT22;25200;53.394;10.414;2023-03-11T04:00:30;2.40;91.30
39519;DHT22;25200;53.394;10.414;2023-03-11T04:02:56;2.30;91.20
39519;DHT22;25200;53.394;10.414;2023-03-11T04:05:22;2.30;91.20
39519;DHT22;25200;53.394;10.414;2023-03-11T04:07:51;2.30;91.20
39519;DHT22;25200;53.394;10.414;2023-03-11T04:10:17;2.40;91.30
39519;DHT22;25200;53.394;10.414;2023-03-11T04:12:42;2.30;91.20
39519;DHT22;25200;53.394;10.414;2023-03-11T04:15:08;2.30;91.30
39519;DHT22;25200;53.394;10.414;2023-03-11T04:17:35;2.30;91.20
39519;DHT22;25200;53.394;10.414;2023-03-11T04:20:00;2.40;91.20
39519;DHT22;25200;53.394;10.414;2023-03-11T04:22:26;2.30;91.20
39519;DHT22;25200;53.394;10.414;2023-03-11T04:24:52;2.40;91.20
39519;DHT22;25200;53.394;10.414;2023-03-11T04:27:17;2.30;91.20
39519;DHT22;25200;53.394;10.414;2023-03-11T04:29:43;2.30;91.20
39519;DHT22;25200;53.394;10.414;2023-03-11T04:32:08;2.30;91.30
39519;DHT22;25200;53.394;10.414;2023-03-11T04:34:34;2.30;91.30
39519;DHT22;25200;53.394;10.414;2023-03-11T04:37:00;2.30;91.30
39519;DHT22;25200;53.394;10.414;2023-03-11T04:39:25;2.30;91.30
39519;DHT22;25200;53.394;10.414;2023-03-11T04:41:51;2.30;91.30
39519;DHT22;25200;53.394;10.414;2023-03-11T04:44:16;2.30;91.40
39519;DHT22;25200;53.394;10.414;2023-03-11T04:46:42;2.30;91.40
39519;DHT22;25200;53.394;10.414;2023-03-11T04:49:08;2.30;91.30
39519;DHT22;25200;53.394;10.414;2023-03-11T04:51:34;2.30;91.30
39519;DHT22;25200;53.394;10.414;2023-03-11T04:54:00;2.30;91.30
39519;DHT22;25200;53.394;10.414;2023-03-11T04:56:26;2.30;91.40
39519;DHT22;25200;53.394;10.414;2023-03-11T04:58:51;2.30;91.30
39519;DHT22;25200;53.394;10.414;2023-03-11T05:01:17;2.30;91.30
39519;DHT22;25200;53.394;10.414;2023-03-11T05:03:42;2.30;91.30
39519;DHT22;25200;53.394;10.414;2023-03-11T05:06:08;2.20;91.30
39519;DHT22;25200;53.394;10.414;2023-03-11T05:08:34;2.30;91.40
39519;DHT22;25200;53.394;10.414;2023-03-11T05:10:59;2.30;91.30
39519;DHT22;25200;53.394;10.414;2023-03-11T05:13:25;2.30;91.30
39519;DHT22;25200;53.394;10.414;2023-03-11T05:15:51;2.30;91.30
39519;DHT22;25200;53.394;10.414;2023-03-11T05:18:16;2.30;91.30
39519;DHT22;25200;53.394;10.414;2023-03-11T05:20:42;2.30;91.30
39519;DHT22;25200;53.394;10.414;2023-03-11T05:23:08;2.30;91.30
39519;DHT22;25200;53.394;10.414;2023-03-11T05:25:33;2.30;91.40
39519;DHT22;25200;53.394;10.414;2023-03-11T05:28:00;2.30;91.30
39519;DHT22;25200;53.394;10.414;2023-03-11T05:30:25;2.30;91.30
39519;DHT22;25200;53.394;10.414;2023-03-11T05:32:51;2.30;91.30
39519;DHT22;25200;53.394;10.414;2023-03-11T05:35:17;2.30;91.30
39519;DHT22;25200;53.394;10.414;2023-03-11T05:37:43;2.30;91.30
39519;DHT22;25200;53.394;10.414;2023-03-11T05:40:10;2.30;91.50
39519;DHT22;25200;53.394;10.414;2023-03-11T05:42:36;2.30;91.20
39519;DHT22;25200;53.394;10.414;2023-03-11T05:45:02;2.30;91.30
39519;DHT22;25200;53.394;10.414;2023-03-11T05:47:28;2.30;91.30
39519;DHT22;25200;53.394;10.414;2023-03-11T05:49:54;2.30;91.30
39519;DHT22;25200;53.394;10.414;2023-03-11T05:52:20;2.30;91.30
39519;DHT22;25200;53.394;10.414;2023-03-11T05:54:49;2.30;91.30
39519;DHT22;25200;53.394;10.414;2023-03-11T05:57:16;2.30;91.20
39519;DHT22;25200;53.394;10.414;2023-03-11T05:59:42;2.30;91.20
39519;DHT22;25200;53.394;10.414;2023-03-11T06:02:07;2.30;91.20
39519;DHT22;25200;53.394;10.414;2023-03-11T06:04:33;2.30;91.20
39519;DHT22;25200;53.394;10.414;2023-03-11T06:06:59;2.30;91.30
39519;DHT22;25200;53.394;10.414;2023-03-11T06:09:24;2.30;91.30
39519;DHT22;25200;53.394;10.414;2023-03-11T06:11:50;2.30;91.20
39519;DHT22;25200;53.394;10.414;2023-03-11T06:14:16;2.30;91.20
39519;DHT22;25200;53.394;10.414;2023-03-11T06:16:41;2.30;91.20
39519;DHT22;25200;53.394;10.414;2023-03-11T06:19:07;2.30;91.20
39519;DHT22;25200;53.394;10.414;2023-03-11T06:21:33;2.30;91.20
39519;DHT22;25200;53.394;10.414;2023-03-11T06:23:59;2.20;91.30
39519;DHT22;25200;53.394;10.414;2023-03-11T06:26:25;2.20;91.20
39519;DHT22;25200;53.394;10.414;2023-03-11T06:28:51;2.30;91.20
39519;DHT22;25200;53.394;10.414;2023-03-11T06:31:20;2.20;91.20
39519;DHT22;25200;53.394;10.414;2023-03-11T06:33:47;2.20;91.20
39519;DHT22;25200;53.394;10.414;2023-03-11T06:36:14;2.20;91.20
39519;DHT22;25200;53.394;10.414;2023-03-11T06:38:40;2.20;91.10
39519;DHT22;25200;53.394;10.414;2023-03-11T06:41:07;2.20;91.20
39519;DHT22;25200;53.394;10.414;2023-03-11T06:43:34;2.20;91.20
39519;DHT22;25200;53.394;10.414;2023-03-11T06:46:00;2.20;91.10
39519;DHT22;25200;53.394;10.414;2023-03-11T06:48:26;2.20;91.20
39519;DHT22;25200;53.394;10.414;2023-03-11T06:50:57;2.20;91.20
39519;DHT22;25200;53.394;10.414;2023-03-11T06:53:23;2.20;91.20
39519;DHT22;25200;53.394;10.414;2023-03-11T06:56:02;2.20;91.20
39519;DHT22;25200;53.394;10.414;2023-03-11T06:58:29;2.20;91.10
39519;DHT22;25200;53.394;10.414;2023-03-11T07:01:03;2.20;91.20
39519;DHT22;25200;53.394;10.414;2023-03-11T07:03:29;2.20;91.20
39519;DHT22;25200;53.394;10.414;2023-03-11T07:05:56;2.20;91.10
39519;DHT22;25200;53.394;10.414;2023-03-11T07:08:21;2.20;91.20
39519;DHT22;25200;53.394;10.414;2023-03-11T07:10:59;2.20;91.10
39519;DHT22;25200;53.394;10.414;2023-03-11T07:13:25;2.20;91.20
39519;DHT22;25200;53.394;10.414;2023-03-11T07:16:08;2.20;91.20
39519;DHT22;25200;53.394;10.414;2023-03-11T07:18:35;2.20;91.10
39519;DHT22;25200;53.394;10.414;2023-03-11T07:21:05;2.20;91.10
39519;DHT22;25200;53.394;10.414;2023-03-11T07:23:31;2.20;91.20
39519;DHT22;25200;53.394;10.414;2023-03-11T07:25:57;2.20;91.10
39519;DHT22;25200;53.394;10.414;2023-03-11T07:28:25;2.20;91.10
39519;DHT22;25200;53.394;10.414;2023-03-11T07:30:54;2.20;91.00
39519;DHT22;25200;53.394;10.414;2023-03-11T07:33:25;2.20;91.00
39519;DHT22;25200;53.394;10.414;2023-03-11T07:35:55;2.20;91.10
39519;DHT22;25200;53.394;10.414;2023-03-11T07:38:20;2.20;91.10
39519;DHT22;25200;53.394;10.414;2023-03-11T07:40:46;2.20;91.10
39519;DHT22;25200;53.394;10.414;2023-03-11T07:43:12;2.20;91.10
39519;DHT22;25200;53.394;10.414;2023-03-11T07:45:37;2.20;91.10
39519;DHT22;25200;53.394;10.414;2023-03-11T07:48:03;2.20;91.10
39519;DHT22;25200;53.394;10.414;2023-03-11T07:50:29;2.20;91.10
39519;DHT22;25200;53.394;10.414;2023-03-11T07:52:55;2.20;91.10
39519;DHT22;25200;53.394;10.414;2023-03-11T07:55:20;2.10;91.20
39519;DHT22;25200;53.394;10.414;2023-03-11T07:57:47;2.20;91.10
39519;DHT22;25200;53.394;10.414;2023-03-11T08:00:14;2.20;91.20
39519;DHT22;25200;53.394;10.414;2023-03-11T08:02:40;2.20;91.20
39519;DHT22;25200;53.394;10.414;2023-03-11T08:05:06;2.20;91.20
39519;DHT22;25200;53.394;10.414;2023-03-11T08:07:32;2.20;91.20
39519;DHT22;25200;53.394;10.414;2023-03-11T08:09:58;2.20;91.20
39519;DHT22;25200;53.394;10.414;2023-03-11T08:12:24;2.10;91.20
39519;DHT22;25200;53.394;10.414;2023-03-11T08:14:49;2.20;91.20
39519;DHT22;25200;53.394;10.414;2023-03-11T08:17:15;2.20;91.10
39519;DHT22;25200;53.394;10.414;2023-03-11T08:19:40;2.20;91.10
39519;DHT22;25200;53.394;10.414;2023-03-11T08:22:06;2.20;91.10
39519;DHT22;25200;53.394;10.414;2023-03-11T08:24:32;2.20;91.10
39519;DHT22;25200;53.394;10.414;2023-03-11T08:26:57;2.20;91.10
39519;DHT22;25200;53.394;10.414;2023-03-11T08:29:24;2.20;91.10
39519;DHT22;25200;53.394;10.414;2023-03-11T08:31:49;2.20;91.10
39519;DHT22;25200;53.394;10.414;2023-03-11T08:34:15;2.20;91.10
39519;DHT22;25200;53.394;10.414;2023-03-11T08:36:41;2.20;91.10
39519;DHT22;25200;53.394;10.414;2023-03-11T08:39:07;2.20;91.20
39519;DHT22;25200;53.394;10.414;2023-03-11T08:41:33;2.20;91.10
39519;DHT22;25200;53.394;10.414;2023-03-11T08:43:59;2.20;91.10
39519;DHT22;25200;53.394;10.414;2023-03-11T08:46:33;2.20;91.20
39519;DHT22;25200;53.394;10.414;2023-03-11T08:49:00;2.20;91.20
39519;DHT22;25200;53.394;10.414;2023-03-11T08:51:26;2.20;91.20
39519;DHT22;25200;53.394;10.414;2023-03-11T08:53:52;2.20;91.20
39519;DHT22;25200;53.394;10.414;2023-03-11T08:56:18;2.20;91.20
39519;DHT22;25200;53.394;10.414;2023-03-11T08:58:45;2.20;91.10
39519;DHT22;25200;53.394;10.414;2023-03-11T09:01:12;2.10;91.10
39519;DHT22;25200;53.394;10.414;2023-03-11T09:03:38;2.20;91.10
39519;DHT22;25200;53.394;10.414;2023-03-11T09:06:07;2.20;91.10
39519;DHT22;25200;53.394;10.414;2023-03-11T09:08:33;2.20;91.10
39519;DHT22;25200;53.394;10.414;2023-03-11T09:10:59;2.20;91.10
39519;DHT22;25200;53.394;10.414;2023-03-11T09:13:25;2.20;91.10
39519;DHT22;25200;53.394;10.414;2023-03-11T09:15:51;2.20;91.10
39519;DHT22;25200;53.394;10.414;2023-03-11T09:18:17;2.20;91.10
39519;DHT22;25200;53.394;10.414;2023-03-11T09:20:43;2.20;91.10
39519;DHT22;25200;53.394;10.414;2023-03-11T09:23:10;2.20;91.10
39519;DHT22;25200;53.394;10.414;2023-03-11T09:25:36;2.20;91.10
39519;DHT22;25200;53.394;10.414;2023-03-11T09:28:02;2.20;91.10
39519;DHT22;25200;53.394;10.414;2023-03-11T09:30:28;2.20;91.10
39519;DHT22;25200;53.394;10.414;2023-03-11T09:32:54;2.20;91.10
39519;DHT22;25200;53.394;10.414;2023-03-11T09:35:20;2.20;91.10
39519;DHT22;25200;53.394;10.414;2023-03-11T09:37:48;2.20;91.10
39519;DHT22;25200;53.394;10.414;2023-03-11T09:40:16;2.20;91.10
39519;DHT22;25200;53.394;10.414;2023-03-11T09:45:20;2.20;91.10
39519;DHT22;25200;53.394;10.414;2023-03-11T09:50:50;2.30;91.10
39519;DHT22;25200;53.394;10.414;2023-03-11T09:55:57;2.30;91.10
39519;DHT22;25200;53.394;10.414;2023-03-11T10:00:55;2.30;91.10
39519;DHT22;25200;53.394;10.414;2023-03-11T10:03:39;2.30;91.00
39519;DHT22;25200;53.394;10.414;2023-03-11T10:06:18;2.30;91.10
39519;DHT22;25200;53.394;10.414;2023-03-11T10:16:55;2.40;91.00
39519;DHT22;25200;53.394;10.414;2023-03-11T10:22:14;2.40;91.10
39519;DHT22;25200;53.394;10.414;2023-03-11T10:27:36;2.50;91.00
39519;DHT22;25200;53.394;10.414;2023-03-11T10:30:14;2.50;90.90
39519;DHT22;25200;53.394;10.414;2023-03-11T10:35:20;2.50;91.50
39519;DHT22;25200;53.394;10.414;2023-03-11T10:37:53;2.50;91.20
39519;DHT22;25200;53.394;10.414;2023-03-11T10:40:34;2.50;91.10
39519;DHT22;25200;53.394;10.414;2023-03-11T10:43:04;2.50;91.20
39519;DHT22;25200;53.394;10.414;2023-03-11T10:45:38;2.50;91.20
39519;DHT22;25200;53.394;10.414;2023-03-11T10:48:14;2.60;91.70
39519;DHT22;25200;53.394;10.414;2023-03-11T10:53:27;2.60;91.50
39519;DHT22;25200;53.394;10.414;2023-03-11T10:55:55;2.70;91.70
39519;DHT22;25200;53.394;10.414;2023-03-11T10:58:24;2.70;91.90
39519;DHT22;25200;53.394;10.414;2023-03-11T11:01:17;2.80;91.80
39519;DHT22;25200;53.394;10.414;2023-03-11T11:03:46;2.80;91.90
39519;DHT22;25200;53.394;10.414;2023-03-11T11:06:25;2.80;91.80
39519;DHT22;25200;53.394;10.414;2023-03-11T11:11:32;2.80;91.60
39519;DHT22;25200;53.394;10.414;2023-03-11T11:14:03;2.90;92.10
39519;DHT22;25200;53.394;10.414;2023-03-11T11:16:29;2.90;91.80
39519;DHT22;25200;53.394;10.414;2023-03-11T11:19:07;2.90;92.10
39519;DHT22;25200;53.394;10.414;2023-03-11T11:26:30;3.00;91.90
39519;DHT22;25200;53.394;10.414;2023-03-11T11:31:44;3.00;92.00
39519;DHT22;25200;53.394;10.414;2023-03-11T11:34:39;3.10;92.40
39519;DHT22;25200;53.394;10.414;2023-03-11T11:37:06;3.10;92.00
39519;DHT22;25200;53.394;10.414;2023-03-11T11:39:53;3.10;92.00
39519;DHT22;25200;53.394;10.414;2023-03-11T11:42:23;3.20;92.00
39519;DHT22;25200;53.394;10.414;2023-03-11T11:44:54;3.20;92.40
39519;DHT22;25200;53.394;10.414;2023-03-11T11:47:25;3.30;92.40
39519;DHT22;25200;53.394;10.414;2023-03-11T11:49:55;3.30;92.10
39519;DHT22;25200;53.394;10.414;2023-03-11T11:52:32;3.30;92.20
39519;DHT22;25200;53.394;10.414;2023-03-11T11:55:22;3.30;92.00
39519;DHT22;25200;53.394;10.414;2023-03-11T11:57:48;3.30;91.90
39519;DHT22;25200;53.394;10.414;2023-03-11T12:00:22;3.40;92.10
39519;DHT22;25200;53.394;10.414;2023-03-11T12:05:57;3.40;91.90
39519;DHT22;25200;53.394;10.414;2023-03-11T12:08:38;3.40;92.00
39519;DHT22;25200;53.394;10.414;2023-03-11T12:11:22;3.50;92.00
39519;DHT22;25200;53.394;10.414;2023-03-11T12:19:03;3.60;92.30
39519;DHT22;25200;53.394;10.414;2023-03-11T12:24:58;3.70;92.20
39519;DHT22;25200;53.394;10.414;2023-03-11T12:27:33;3.70;92.50
39519;DHT22;25200;53.394;10.414;2023-03-11T12:30:05;3.70;92.30
39519;DHT22;25200;53.394;10.414;2023-03-11T12:32:39;3.80;92.20
39519;DHT22;25200;53.394;10.414;2023-03-11T12:37:57;3.90;92.40
39519;DHT22;25200;53.394;10.414;2023-03-11T12:46:01;4.00;92.30
39519;DHT22;25200;53.394;10.414;2023-03-11T12:48:46;4.00;92.20
39519;DHT22;25200;53.394;10.414;2023-03-11T12:51:40;4.00;92.00
39519;DHT22;25200;53.394;10.414;2023-03-11T12:54:29;4.10;92.40
39519;DHT22;25200;53.394;10.414;2023-03-11T13:05:30;4.20;92.00
39519;DHT22;25200;53.394;10.414;2023-03-11T13:08:24;4.30;91.90
39519;DHT22;25200;53.394;10.414;2023-03-11T13:10:52;4.30;91.90
39519;DHT22;25200;53.394;10.414;2023-03-11T13:15:53;4.30;91.70
39519;DHT22;25200;53.394;10.414;2023-03-11T13:18:28;4.30;91.70
39519;DHT22;25200;53.394;10.414;2023-03-11T13:21:01;4.30;91.80
39519;DHT22;25200;53.394;10.414;2023-03-11T13:28:49;4.40;91.80
39519;DHT22;25200;53.394;10.414;2023-03-11T13:37:13;4.50;91.60
39519;DHT22;25200;53.394;10.414;2023-03-11T13:42:25;4.50;91.60
39519;DHT22;25200;53.394;10.414;2023-03-11T13:44:51;4.50;91.60
39519;DHT22;25200;53.394;10.414;2023-03-11T13:47:18;4.60;91.60
39519;DHT22;25200;53.394;10.414;2023-03-11T13:52:25;4.60;91.70
39519;DHT22;25200;53.394;10.414;2023-03-11T13:55:05;4.70;91.60
39519;DHT22;25200;53.394;10.414;2023-03-11T13:57:34;4.80;92.10
39519;DHT22;25200;53.394;10.414;2023-03-11T14:02:54;4.80;91.70
39519;DHT22;25200;53.394;10.414;2023-03-11T14:05:23;4.90;91.70
39519;DHT22;25200;53.394;10.414;2023-03-11T14:07:49;4.90;91.60
39519;DHT22;25200;53.394;10.414;2023-03-11T14:10:33;4.90;91.90
39519;DHT22;25200;53.394;10.414;2023-03-11T14:13:15;5.00;91.70
39519;DHT22;25200;53.394;10.414;2023-03-11T14:15:56;5.00;91.70
39519;DHT22;25200;53.394;10.414;2023-03-11T14:20:53;5.10;91.60
39519;DHT22;25200;53.394;10.414;2023-03-11T14:23:19;5.10;91.50
39519;DHT22;25200;53.394;10.414;2023-03-11T14:25:45;5.10;91.50
39519;DHT22;25200;53.394;10.414;2023-03-11T14:28:20;5.10;91.40
39519;DHT22;25200;53.394;10.414;2023-03-11T14:30:57;5.10;91.20
39519;DHT22;25200;53.394;10.414;2023-03-11T14:33:24;5.10;91.30
39519;DHT22;25200;53.394;10.414;2023-03-11T14:35:52;5.10;91.20
39519;DHT22;25200;53.394;10.414;2023-03-11T14:38:23;5.10;91.30
39519;DHT22;25200;53.394;10.414;2023-03-11T14:40:54;5.10;91.10
39519;DHT22;25200;53.394;10.414;2023-03-11T14:43:21;5.10;91.20
39519;DHT22;25200;53.394;10.414;2023-03-11T14:45:48;5.10;91.30
39519;DHT22;25200;53.394;10.414;2023-03-11T14:48:20;5.10;91.10
39519;DHT22;25200;53.394;10.414;2023-03-11T14:50:48;5.10;91.10
39519;DHT22;25200;53.394;10.414;2023-03-11T14:55:47;5.10;90.90
39519;DHT22;25200;53.394;10.414;2023-03-11T15:03:27;5.10;91.00
39519;DHT22;25200;53.394;10.414;2023-03-11T15:08:58;5.20;91.20
39519;DHT22;25200;53.394;10.414;2023-03-11T15:11:26;5.20;91.10
39519;DHT22;25200;53.394;10.414;2023-03-11T15:13:53;5.20;91.10
39519;DHT22;25200;53.394;10.414;2023-03-11T15:16:34;5.20;91.00
39519;DHT22;25200;53.394;10.414;2023-03-11T15:19:21;5.20;91.10
39519;DHT22;25200;53.394;10.414;2023-03-11T15:21:50;5.20;90.70
39519;DHT22;25200;53.394;10.414;2023-03-11T15:24:21;5.20;91.00
39519;DHT22;25200;53.394;10.414;2023-03-11T15:27:00;5.20;90.90
39519;DHT22;25200;53.394;10.414;2023-03-11T15:29:27;5.20;91.00
39519;DHT22;25200;53.394;10.414;2023-03-11T15:31:53;5.20;91.20
39519;DHT22;25200;53.394;10.414;2023-03-11T15:34:29;5.10;91.00
39519;DHT22;25200;53.394;10.414;2023-03-11T15:39:37;5.10;90.90
39519;DHT22;25200;53.394;10.414;2023-03-11T15:47:21;5.20;91.00
39519;DHT22;25200;53.394;10.414;2023-03-11T15:49:48;5.10;91.30
39519;DHT22;25200;53.394;10.414;2023-03-11T15:52:14;5.20;91.30
39519;DHT22;25200;53.394;10.414;2023-03-11T15:54:40;5.10;91.40
39519;DHT22;25200;53.394;10.414;2023-03-11T15:57:08;5.10;91.60
39519;DHT22;25200;53.394;10.414;2023-03-11T15:59:35;5.20;91.50
39519;DHT22;25200;53.394;10.414;2023-03-11T16:02:02;5.10;91.40
39519;DHT22;25200;53.394;10.414;2023-03-11T16:04:27;5.10;91.30
39519;DHT22;25200;53.394;10.414;2023-03-11T16:06:53;5.10;91.40
39519;DHT22;25200;53.394;10.414;2023-03-11T16:09:19;5.10;91.40
39519;DHT22;25200;53.394;10.414;2023-03-11T16:11:46;5.10;91.20
39519;DHT22;25200;53.394;10.414;2023-03-11T16:14:19;5.10;91.50
39519;DHT22;25200;53.394;10.414;2023-03-11T16:16:45;5.00;91.50
39519;DHT22;25200;53.394;10.414;2023-03-11T16:19:12;5.00;91.30
39519;DHT22;25200;53.394;10.414;2023-03-11T16:21:43;5.00;91.40
39519;DHT22;25200;53.394;10.414;2023-03-11T16:24:20;5.00;91.50
39519;DHT22;25200;53.394;10.414;2023-03-11T16:26:46;5.00;91.30
39519;DHT22;25200;53.394;10.414;2023-03-11T16:29:12;5.00;91.50
39519;DHT22;25200;53.394;10.414;2023-03-11T16:31:40;5.00;91.40
39519;DHT22;25200;53.394;10.414;2023-03-11T16:34:05;4.90;91.40
39519;DHT22;25200;53.394;10.414;2023-03-11T16:36:31;4.90;91.40
39519;DHT22;25200;53.394;10.414;2023-03-11T16:38:57;4.90;91.40
39519;DHT22;25200;53.394;10.414;2023-03-11T16:41:22;4.90;91.40
39519;DHT22;25200;53.394;10.414;2023-03-11T16:43:48;4.90;91.30
39519;DHT22;25200;53.394;10.414;2023-03-11T16:46:14;4.90;91.20
39519;DHT22;25200;53.394;10.414;2023-03-11T16:48:39;4.80;91.10
39519;DHT22;25200;53.394;10.414;2023-03-11T16:51:05;4.80;91.10
39519;DHT22;25200;53.394;10.414;2023-03-11T16:53:31;4.80;91.10
39519;DHT22;25200;53.394;10.414;2023-03-11T16:55:56;4.80;91.10
39519;DHT22;25200;53.394;10.414;2023-03-11T16:58:22;4.80;91.10
39519;DHT22;25200;53.394;10.414;2023-03-11T17:00:48;4.70;91.10
39519;DHT22;25200;53.394;10.414;2023-03-11T17:03:15;4.70;91.10
39519;DHT22;25200;53.394;10.414;2023-03-11T17:05:41;4.70;91.10
39519;DHT22;25200;53.394;10.414;2023-03-11T17:08:08;4.60;91.10
39519;DHT22;25200;53.394;10.414;2023-03-11T17:10:39;4.60;91.10
39519;DHT22;25200;53.394;10.414;2023-03-11T17:13:07;4.60;91.10
39519;DHT22;25200;53.394;10.414;2023-03-11T17:15:33;4.60;91.10
39519;DHT22;25200;53.394;10.414;2023-03-11T17:18:00;4.50;91.10
39519;DHT22;25200;53.394;10.414;2023-03-11T17:20:26;4.50;91.10
39519;DHT22;25200;53.394;10.414;2023-03-11T17:22:52;4.50;91.20
39519;DHT22;25200;53.394;10.414;2023-03-11T17:25:18;4.50;91.10
39519;DHT22;25200;53.394;10.414;2023-03-11T17:27:43;4.40;91.10
39519;DHT22;25200;53.394;10.414;2023-03-11T17:30:11;4.40;91.10
39519;DHT22;25200;53.394;10.414;2023-03-11T17:32:37;4.40;91.10
39519;DHT22;25200;53.394;10.414;2023-03-11T17:35:03;4.40;91.00